TAF Text Data
IDs:
Format:
Raw Decoded Include METAR

Data at: 1404 UTC 27 Nov 2021

KRKD 271125Z 2712/2812 28014G22KT P6SM SCT015 OVC035
  FM271700 28014G22KT P6SM OVC250
  FM280000 28008KT P6SM SKC